Time;durP1;ratioP1;P1;durP2;ratioP2;P2;SDS_P1;SDS_P2;PMS_P1;PMS_P2;Temp;Humidity;BMP_temperature;BMP_pressure;BME280_temperature;BME280_humidity;BME280_pressure;Samples;Min_cycle;Max_cycle;Signal;HPM_P1;HPM_P2
2023/09/19 00:01:08;;;;;;;;;;;15.40;99.90;;;;;;8384520;28;20322;-70
2023/09/19 00:05:10;;;;;;;;;;;15.40;99.90;;;;;;8382174;28;20093;-70
2023/09/19 00:09:44;;;;;;;;;;;15.40;99.90;;;;;;8378726;28;20387;-70
2023/09/19 00:13:49;;;;;;;;;;;15.50;99.90;;;;;;8381490;28;20318;-70
2023/09/19 00:17:52;;;;;;;;;;;15.50;99.90;;;;;;8378651;28;19925;-70
2023/09/19 00:21:54;;;;;;;;;;;15.60;99.90;;;;;;8374591;28;19982;-70
2023/09/19 00:25:58;;;;;;;;;;;15.50;99.90;;;;;;8348137;28;19983;-70
2023/09/19 00:30:00;;;;;;;;;;;15.60;99.90;;;;;;8349004;28;20371;-70
2023/09/19 00:34:04;;;;;;;;;;;15.60;99.90;;;;;;8356733;28;19961;-70
2023/09/19 00:38:07;;;;;;;;;;;15.60;99.90;;;;;;8350677;28;19932;-70
2023/09/19 00:42:08;;;;;;;;;;;15.60;99.90;;;;;;8361723;28;20342;-70
2023/09/19 01:01:21;;;;;;;;;;;15.60;99.90;;;;;;8352441;28;19966;-70
2023/09/19 01:05:23;;;;;;;;;;;15.60;99.90;;;;;;8342638;28;20441;-70
2023/09/19 01:19:38;;;;;;;;;;;15.70;99.90;;;;;;8348015;28;19920;-70
2023/09/19 01:23:52;;;;;;;;;;;15.70;99.90;;;;;;8339909;28;20334;-70
2023/09/19 01:28:12;;;;;;;;;;;15.70;99.90;;;;;;8376827;28;19951;-70
2023/09/19 01:32:16;;;;;;;;;;;15.70;99.90;;;;;;8375844;28;19924;-70
2023/09/19 01:36:18;;;;;;;;;;;15.70;99.90;;;;;;8375521;28;19985;-70
2023/09/19 01:40:22;;;;;;;;;;;15.70;99.90;;;;;;8375840;28;19939;-70
2023/09/19 01:44:58;;;;;;;;;;;15.60;99.90;;;;;;8378500;28;19928;-70
2023/09/19 01:49:21;;;;;;;;;;;15.60;99.90;;;;;;8273597;28;19932;-70
2023/09/19 01:53:28;;;;;;;;;;;15.50;99.90;;;;;;8359259;28;20421;-70
2023/09/19 01:57:32;;;;;;;;;;;15.50;99.90;;;;;;8372146;28;19986;-70
2023/09/19 02:01:35;;;;;;;;;;;15.50;99.90;;;;;;8372120;28;19932;-70
2023/09/19 02:05:37;;;;;;;;;;;15.40;99.90;;;;;;8371103;28;20269;-70
2023/09/19 02:09:39;;;;;;;;;;;15.40;99.90;;;;;;8370229;28;19972;-70
2023/09/19 02:13:41;;;;;;;;;;;15.30;99.90;;;;;;8368914;28;19925;-69
2023/09/19 02:17:44;;;;;;;;;;;15.30;99.90;;;;;;8376930;28;20372;-69
2023/09/19 02:21:45;;;;;;;;;;;15.20;99.90;;;;;;8371370;28;19925;-70
2023/09/19 02:25:53;;;;;;;;;;;15.20;99.90;;;;;;8378421;28;19924;-70
2023/09/19 02:29:55;;;;;;;;;;;15.10;99.90;;;;;;8379224;28;19968;-70
2023/09/19 02:33:57;;;;;;;;;;;15.10;99.90;;;;;;8375849;28;19951;-70
2023/09/19 02:37:59;;;;;;;;;;;15.00;99.90;;;;;;8353442;28;19931;-70
2023/09/19 02:42:01;;;;;;;;;;;15.00;99.90;;;;;;8376543;28;20488;-70
2023/09/19 02:46:03;;;;;;;;;;;14.90;99.90;;;;;;8382716;28;20290;-70
2023/09/19 02:50:04;;;;;;;;;;;14.90;99.90;;;;;;8367862;28;19974;-70
2023/09/19 02:54:07;;;;;;;;;;;14.90;99.90;;;;;;8378793;28;20580;-70
2023/09/19 02:58:11;;;;;;;;;;;14.80;99.90;;;;;;8369291;28;19968;-70
2023/09/19 03:02:12;;;;;;;;;;;14.70;99.90;;;;;;8370605;28;20306;-70
2023/09/19 03:06:14;;;;;;;;;;;14.70;99.90;;;;;;8366987;28;20239;-70
2023/09/19 03:10:17;;;;;;;;;;;14.70;99.90;;;;;;8378589;28;20043;-70
2023/09/19 03:14:20;;;;;;;;;;;14.60;99.90;;;;;;8382711;28;20386;-70
2023/09/19 03:18:23;;;;;;;;;;;14.60;99.90;;;;;;8388698;28;19931;-70
2023/09/19 03:22:26;;;;;;;;;;;14.50;99.90;;;;;;8381559;28;19925;-70
2023/09/19 03:26:28;;;;;;;;;;;14.50;99.90;;;;;;8392233;28;19924;-70
2023/09/19 03:30:30;;;;;;;;;;;14.50;99.90;;;;;;8384045;28;19924;-70
2023/09/19 03:34:31;;;;;;;;;;;14.40;99.90;;;;;;8388679;28;19982;-70
2023/09/19 03:38:34;;;;;;;;;;;14.40;99.90;;;;;;8376533;28;19924;-70
2023/09/19 03:42:39;;;;;;;;;;;14.30;99.90;;;;;;8378285;28;19925;-70
2023/09/19 03:46:41;;;;;;;;;;;14.20;99.90;;;;;;8375203;28;20280;-70
2023/09/19 03:50:43;;;;;;;;;;;14.20;99.90;;;;;;8372114;28;20031;-70
2023/09/19 03:54:45;;;;;;;;;;;14.20;99.90;;;;;;8374685;28;19925;-70
2023/09/19 03:59:05;;;;;;;;;;;14.20;99.90;;;;;;8372847;28;19929;-70
2023/09/19 04:03:07;;;;;;;;;;;14.20;99.90;;;;;;8377355;28;19924;-70
2023/09/19 04:07:09;;;;;;;;;;;14.10;99.90;;;;;;8382432;28;19928;-70
2023/09/19 04:11:11;;;;;;;;;;;14.00;99.90;;;;;;8382181;28;19929;-70
2023/09/19 04:15:13;;;;;;;;;;;14.00;99.90;;;;;;8381571;28;20049;-70
2023/09/19 04:19:14;;;;;;;;;;;14.00;99.90;;;;;;8369368;28;20346;-70
2023/09/19 04:23:17;;;;;;;;;;;14.00;99.90;;;;;;8381971;28;19929;-70
2023/09/19 04:27:18;;;;;;;;;;;14.10;99.90;;;;;;8352971;28;19925;-69
2023/09/19 04:31:22;;;;;;;;;;;14.10;99.90;;;;;;8371005;28;19924;-70
2023/09/19 04:35:25;;;;;;;;;;;14.10;99.90;;;;;;8377711;28;19928;-70
2023/09/19 04:39:27;;;;;;;;;;;14.10;99.90;;;;;;8377903;28;19925;-70
2023/09/19 04:43:29;;;;;;;;;;;14.20;99.90;;;;;;8378030;28;19978;-70
2023/09/19 04:47:30;;;;;;;;;;;14.20;99.90;;;;;;8375326;28;20307;-70
2023/09/19 04:51:34;;;;;;;;;;;14.20;99.90;;;;;;8377000;28;19925;-70
2023/09/19 04:55:36;;;;;;;;;;;14.20;99.90;;;;;;8381364;28;19932;-69
2023/09/19 04:59:37;;;;;;;;;;;14.20;99.90;;;;;;8364581;28;19928;-69
2023/09/19 05:03:39;;;;;;;;;;;14.20;99.90;;;;;;8385005;28;19932;-69
2023/09/19 05:07:41;;;;;;;;;;;14.20;99.90;;;;;;8384044;28;19986;-69
2023/09/19 05:11:43;;;;;;;;;;;14.20;99.90;;;;;;8377764;28;20023;-70
2023/09/19 05:15:45;;;;;;;;;;;14.20;99.90;;;;;;8378612;28;19924;-70
2023/09/19 05:19:47;;;;;;;;;;;14.10;99.90;;;;;;8378489;28;20444;-70
2023/09/19 05:23:49;;;;;;;;;;;14.10;99.90;;;;;;8381522;28;19937;-69
2023/09/19 05:27:53;;;;;;;;;;;14.20;99.90;;;;;;8371575;28;19939;-70
2023/09/19 05:31:54;;;;;;;;;;;14.20;99.90;;;;;;8375862;28;19925;-70
2023/09/19 05:35:56;;;;;;;;;;;14.20;99.90;;;;;;8372644;28;20299;-70
2023/09/19 05:39:58;;;;;;;;;;;14.20;99.90;;;;;;8379891;28;20326;-71
2023/09/19 05:44:00;;;;;;;;;;;14.30;99.90;;;;;;8376069;28;19925;-70
2023/09/19 05:48:13;;;;;;;;;;;14.30;99.90;;;;;;8371387;28;20611;-70
2023/09/19 05:52:14;;;;;;;;;;;14.30;99.90;;;;;;8374738;28;19932;-69
2023/09/19 05:56:18;;;;;;;;;;;14.30;99.90;;;;;;8371933;28;19936;-69
2023/09/19 06:00:24;;;;;;;;;;;14.30;99.90;;;;;;8381192;28;19932;-70
2023/09/19 06:04:25;;;;;;;;;;;14.30;99.90;;;;;;8377469;28;19932;-70
2023/09/19 06:08:28;;;;;;;;;;;14.40;99.90;;;;;;8377203;28;19925;-70
2023/09/19 06:12:30;;;;;;;;;;;14.30;99.90;;;;;;8380422;28;19925;-69
2023/09/19 06:16:32;;;;;;;;;;;14.30;99.90;;;;;;8365666;28;19947;-69
2023/09/19 06:20:33;;;;;;;;;;;14.30;99.90;;;;;;8379060;28;20458;-70
2023/09/19 06:24:37;;;;;;;;;;;14.30;99.90;;;;;;8381272;28;21228;-68
2023/09/19 06:28:38;;;;;;;;;;;14.30;99.90;;;;;;8377152;28;19932;-70
2023/09/19 06:32:44;;;;;;;;;;;14.30;99.90;;;;;;8372751;28;20268;-69
2023/09/19 06:36:46;;;;;;;;;;;14.40;99.90;;;;;;8372250;28;19978;-70
2023/09/19 06:40:47;;;;;;;;;;;14.40;99.90;;;;;;8364117;28;19929;-69
2023/09/19 06:44:49;;;;;;;;;;;14.40;99.90;;;;;;8377862;28;19924;-69
2023/09/19 06:48:52;;;;;;;;;;;14.50;99.90;;;;;;8375575;28;20287;-69
2023/09/19 06:52:54;;;;;;;;;;;14.50;99.90;;;;;;8380141;28;20213;-69
2023/09/19 06:56:58;;;;;;;;;;;14.60;99.90;;;;;;8382340;28;19931;-70
2023/09/19 07:01:00;;;;;;;;;;;14.60;99.90;;;;;;8384253;28;19932;-69
2023/09/19 07:05:01;;;;;;;;;;;14.60;99.90;;;;;;8381074;28;20292;-69
2023/09/19 07:09:04;;;;;;;;;;;14.70;99.90;;;;;;8377883;28;19924;-69
2023/09/19 07:13:08;;;;;;;;;;;14.80;99.90;;;;;;8376181;28;19925;-69
2023/09/19 07:17:11;;;;;;;;;;;14.90;99.90;;;;;;8380865;28;19963;-70
2023/09/19 07:21:15;;;;;;;;;;;15.00;99.90;;;;;;8380008;28;19924;-69
2023/09/19 07:25:17;;;;;;;;;;;15.00;99.90;;;;;;8363346;28;19982;-68
2023/09/19 07:29:19;;;;;;;;;;;15.10;99.90;;;;;;8384232;28;20806;-69
2023/09/19 07:33:21;;;;;;;;;;;15.10;99.90;;;;;;8386385;28;19924;-69
2023/09/19 07:37:25;;;;;;;;;;;15.20;99.90;;;;;;8385243;28;19931;-69
2023/09/19 07:41:30;;;;;;;;;;;15.20;99.90;;;;;;8380679;28;19947;-69
2023/09/19 07:45:32;;;;;;;;;;;15.30;99.90;;;;;;8377402;28;19932;-70
2023/09/19 07:49:34;;;;;;;;;;;15.40;99.90;;;;;;8362226;28;19931;-69
2023/09/19 07:53:35;;;;;;;;;;;15.50;99.90;;;;;;8384143;28;19924;-70
2023/09/19 07:57:37;;;;;;;;;;;15.50;99.90;;;;;;8389640;28;19924;-70
2023/09/19 08:01:40;;;;;;;;;;;15.60;99.90;;;;;;8371727;28;20283;-69
2023/09/19 08:05:43;;;;;;;;;;;15.60;99.90;;;;;;8386019;28;19925;-69
2023/09/19 08:09:46;;;;;;;;;;;15.70;99.90;;;;;;8375765;28;20256;-69
2023/09/19 08:13:48;;;;;;;;;;;15.70;99.90;;;;;;8381289;28;19942;-70
2023/09/19 08:17:50;;;;;;;;;;;15.80;99.90;;;;;;8368470;28;19929;-69
2023/09/19 08:21:52;;;;;;;;;;;15.80;99.90;;;;;;8379569;28;20019;-69
2023/09/19 08:25:58;;;;;;;;;;;15.90;99.90;;;;;;8376665;28;20404;-70
2023/09/19 08:29:59;;;;;;;;;;;16.00;99.90;;;;;;8358944;28;19924;-70
2023/09/19 08:34:01;;;;;;;;;;;16.10;99.90;;;;;;8378094;28;20429;-69
2023/09/19 08:38:04;;;;;;;;;;;16.10;99.90;;;;;;8378213;28;19924;-69
2023/09/19 08:42:07;;;;;;;;;;;16.10;99.90;;;;;;8377601;28;20342;-69
2023/09/19 08:46:11;;;;;;;;;;;16.20;99.90;;;;;;8373579;28;19931;-69
2023/09/19 08:50:23;;;;;;;;;;;16.20;99.90;;;;;;8377105;28;20288;-69
2023/09/19 08:54:29;;;;;;;;;;;16.30;99.90;;;;;;8377743;28;19951;-70
2023/09/19 08:58:33;;;;;;;;;;;16.40;99.90;;;;;;8356148;28;19931;-69
2023/09/19 09:02:37;;;;;;;;;;;16.50;99.90;;;;;;8382408;28;19943;-69
2023/09/19 09:06:39;;;;;;;;;;;16.50;99.90;;;;;;8381864;28;19933;-70
2023/09/19 09:10:42;;;;;;;;;;;16.50;99.90;;;;;;8369468;28;19924;-69
2023/09/19 09:14:44;;;;;;;;;;;16.60;99.90;;;;;;8365893;28;20364;-69
2023/09/19 09:18:52;;;;;;;;;;;16.60;99.90;;;;;;8372222;28;19952;-69
2023/09/19 09:22:55;;;;;;;;;;;16.60;99.90;;;;;;8373266;28;20000;-69
2023/09/19 09:26:57;;;;;;;;;;;16.70;99.90;;;;;;8373086;28;20367;-70
2023/09/19 09:31:02;;;;;;;;;;;16.70;99.90;;;;;;8367139;28;19935;-70
2023/09/19 09:35:09;;;;;;;;;;;16.70;99.90;;;;;;8375160;28;19967;-70
2023/09/19 09:39:24;;;;;;;;;;;16.80;99.90;;;;;;8376960;28;19947;-69
2023/09/19 09:43:28;;;;;;;;;;;17.00;99.90;;;;;;8377699;28;19924;-70
2023/09/19 09:47:49;;;;;;;;;;;17.20;99.90;;;;;;8392119;28;19932;-70
2023/09/19 09:52:05;;;;;;;;;;;17.30;99.90;;;;;;8383154;28;19925;-69
2023/09/19 09:56:09;;;;;;;;;;;17.40;99.90;;;;;;8390553;28;19951;-69
2023/09/19 10:04:28;;;;;;;;;;;17.40;99.90;;;;;;8369625;28;19932;-69
2023/09/19 10:08:31;;;;;;;;;;;17.50;99.90;;;;;;8386443;28;19968;-70
2023/09/19 10:12:35;;;;;;;;;;;17.70;99.90;;;;;;8373705;28;19932;-69
2023/09/19 10:16:39;;;;;;;;;;;17.70;99.90;;;;;;8369787;28;19925;-69
2023/09/19 10:20:44;;;;;;;;;;;17.60;99.90;;;;;;8381342;28;19931;-69
2023/09/19 10:24:46;;;;;;;;;;;17.50;99.90;;;;;;8350562;28;19936;-69
2023/09/19 10:29:02;;;;;;;;;;;17.50;99.90;;;;;;8375162;28;19924;-69
2023/09/19 10:33:05;;;;;;;;;;;17.60;99.90;;;;;;8371933;28;19925;-69
2023/09/19 10:37:09;;;;;;;;;;;17.70;99.90;;;;;;8354476;28;19932;-69
2023/09/19 10:41:14;;;;;;;;;;;17.70;99.90;;;;;;8370071;28;19939;-69
2023/09/19 10:45:20;;;;;;;;;;;17.90;99.90;;;;;;8384086;28;19931;-69
2023/09/19 10:49:22;;;;;;;;;;;17.90;99.90;;;;;;8374361;28;19924;-69
2023/09/19 10:53:24;;;;;;;;;;;17.90;99.90;;;;;;8360803;28;20342;-68
2023/09/19 10:57:28;;;;;;;;;;;18.00;99.90;;;;;;8374079;28;19924;-70
2023/09/19 11:01:41;;;;;;;;;;;18.00;99.90;;;;;;8370880;28;19932;-69
2023/09/19 11:05:59;;;;;;;;;;;18.00;99.90;;;;;;8375872;28;19982;-69
2023/09/19 11:10:03;;;;;;;;;;;18.10;99.90;;;;;;8364180;28;19932;-70
2023/09/19 11:14:14;;;;;;;;;;;18.10;99.90;;;;;;8371645;28;19928;-69
2023/09/19 11:18:50;;;;;;;;;;;18.20;99.90;;;;;;8355948;28;20336;-69
2023/09/19 11:22:53;;;;;;;;;;;18.30;99.90;;;;;;8335311;28;19924;-69
2023/09/19 11:27:09;;;;;;;;;;;18.40;99.90;;;;;;8367349;28;19928;-70
2023/09/19 11:31:29;;;;;;;;;;;18.50;99.90;;;;;;8371253;28;20363;-69
2023/09/19 11:35:51;;;;;;;;;;;18.60;99.90;;;;;;8390823;28;19963;-69
2023/09/19 11:40:18;;;;;;;;;;;18.50;99.90;;;;;;8378022;28;19932;-70
2023/09/19 11:44:26;;;;;;;;;;;18.50;99.90;;;;;;8375388;28;19928;-71
2023/09/19 11:48:29;;;;;;;;;;;18.60;99.90;;;;;;8383092;28;19951;-69
2023/09/19 11:52:34;;;;;;;;;;;18.70;99.90;;;;;;8381942;28;19940;-70
2023/09/19 11:56:40;;;;;;;;;;;18.80;99.90;;;;;;8389639;28;19925;-70
2023/09/19 12:00:44;;;;;;;;;;;18.90;99.90;;;;;;8377518;28;19998;-70
2023/09/19 12:04:49;;;;;;;;;;;18.80;99.90;;;;;;8383757;28;19925;-69
2023/09/19 12:08:54;;;;;;;;;;;18.70;99.90;;;;;;8380142;28;19931;-70
2023/09/19 12:12:56;;;;;;;;;;;18.70;99.90;;;;;;8372704;28;19936;-70
2023/09/19 12:17:00;;;;;;;;;;;18.70;99.90;;;;;;8375449;28;19925;-70
2023/09/19 12:21:02;;;;;;;;;;;18.70;99.90;;;;;;8367784;28;19967;-69
2023/09/19 12:25:08;;;;;;;;;;;18.80;99.90;;;;;;8392179;28;20402;-69
2023/09/19 12:29:14;;;;;;;;;;;18.70;99.90;;;;;;8378064;28;19931;-69
2023/09/19 12:33:18;;;;;;;;;;;18.70;99.90;;;;;;8383436;28;19931;-69
2023/09/19 12:37:27;;;;;;;;;;;18.70;99.90;;;;;;8376330;28;20398;-69
2023/09/19 12:41:29;;;;;;;;;;;18.70;99.90;;;;;;8380418;28;20367;-70
2023/09/19 12:45:31;;;;;;;;;;;18.70;99.90;;;;;;8382411;28;19924;-70
2023/09/19 12:49:33;;;;;;;;;;;18.60;99.90;;;;;;8372310;28;19932;-70
2023/09/19 12:53:40;;;;;;;;;;;18.60;99.90;;;;;;8386156;28;19977;-71
2023/09/19 12:57:43;;;;;;;;;;;18.60;99.90;;;;;;8373964;28;19971;-70
2023/09/19 13:01:47;;;;;;;;;;;18.60;99.90;;;;;;8362488;28;20386;-70
2023/09/19 13:05:53;;;;;;;;;;;18.60;99.90;;;;;;8370465;28;19932;-71
2023/09/19 13:10:05;;;;;;;;;;;18.60;99.90;;;;;;8375798;28;20010;-69
2023/09/19 13:14:12;;;;;;;;;;;18.60;99.90;;;;;;8372760;28;19924;-70
2023/09/19 13:18:14;;;;;;;;;;;18.70;99.90;;;;;;8375129;28;19975;-70
2023/09/19 13:22:49;;;;;;;;;;;18.60;99.90;;;;;;8376551;28;19928;-70
2023/09/19 13:26:51;;;;;;;;;;;18.60;99.90;;;;;;8345581;28;19948;-69
2023/09/19 13:30:54;;;;;;;;;;;18.60;99.90;;;;;;8377636;28;20009;-70
2023/09/19 13:34:56;;;;;;;;;;;18.60;99.90;;;;;;8383289;28;20352;-69
2023/09/19 13:38:58;;;;;;;;;;;18.70;99.90;;;;;;8377800;28;19924;-70
2023/09/19 13:42:59;;;;;;;;;;;18.70;99.90;;;;;;8376145;28;20558;-70
2023/09/19 13:47:02;;;;;;;;;;;18.90;99.90;;;;;;8375814;28;20269;-68
2023/09/19 13:51:04;;;;;;;;;;;19.00;99.90;;;;;;8386217;28;19925;-70
2023/09/19 13:55:06;;;;;;;;;;;19.00;99.90;;;;;;8387178;28;19925;-70
2023/09/19 13:59:08;;;;;;;;;;;19.00;99.90;;;;;;8368134;28;19934;-69
2023/09/19 14:03:10;;;;;;;;;;;19.00;99.90;;;;;;8369158;28;20036;-69
2023/09/19 14:07:14;;;;;;;;;;;18.90;99.90;;;;;;8365346;28;20286;-70
2023/09/19 14:11:16;;;;;;;;;;;18.90;99.90;;;;;;8370328;28;19929;-70
2023/09/19 14:15:18;;;;;;;;;;;18.90;99.90;;;;;;8373954;28;19932;-70
2023/09/19 14:19:19;;;;;;;;;;;18.90;99.90;;;;;;8378217;28;19954;-69
2023/09/19 14:23:23;;;;;;;;;;;18.90;99.90;;;;;;8380566;28;19932;-70
2023/09/19 14:27:25;;;;;;;;;;;18.90;99.90;;;;;;8369761;28;19925;-69
2023/09/19 14:31:27;;;;;;;;;;;18.90;99.90;;;;;;8376213;28;19928;-70
2023/09/19 14:35:29;;;;;;;;;;;18.90;99.90;;;;;;8376511;28;19925;-68
2023/09/19 14:39:31;;;;;;;;;;;18.90;99.90;;;;;;8360185;28;20284;-69
2023/09/19 14:43:32;;;;;;;;;;;18.90;99.90;;;;;;8350067;28;20367;-68
2023/09/19 14:47:34;;;;;;;;;;;18.90;99.90;;;;;;8365770;28;19925;-70
2023/09/19 14:51:39;;;;;;;;;;;18.90;99.90;;;;;;8354285;28;19928;-70
2023/09/19 14:55:41;;;;;;;;;;;18.80;99.90;;;;;;8362934;28;19936;-70
2023/09/19 14:59:43;;;;;;;;;;;18.80;99.90;;;;;;8373906;28;19932;-69
2023/09/19 15:03:46;;;;;;;;;;;18.80;99.90;;;;;;8379321;28;20372;-70
2023/09/19 15:07:48;;;;;;;;;;;18.80;99.90;;;;;;8376030;28;19924;-70
2023/09/19 15:11:50;;;;;;;;;;;18.80;99.90;;;;;;8374621;28;19925;-69
2023/09/19 15:15:51;;;;;;;;;;;18.80;99.90;;;;;;8368026;28;19925;-69
2023/09/19 15:24:56;;;;;;;;;;;18.80;99.90;;;;;;8374609;28;20283;-69
2023/09/19 15:28:58;;;;;;;;;;;18.80;99.90;;;;;;8378005;28;20316;-70
2023/09/19 15:32:59;;;;;;;;;;;18.70;99.90;;;;;;8375074;28;20011;-70
2023/09/19 15:37:01;;;;;;;;;;;18.70;99.90;;;;;;8376432;28;19935;-70
2023/09/19 15:41:03;;;;;;;;;;;18.70;99.90;;;;;;8386582;28;19925;-69
2023/09/19 15:45:05;;;;;;;;;;;18.70;99.90;;;;;;8364775;28;20377;-70
2023/09/19 15:49:07;;;;;;;;;;;18.80;99.90;;;;;;8379996;28;19947;-70
2023/09/19 15:58:12;;;;;;;;;;;18.80;99.90;;;;;;8377163;28;20339;-69
2023/09/19 16:02:14;;;;;;;;;;;18.80;99.90;;;;;;8378028;28;19939;-70
2023/09/19 16:06:17;;;;;;;;;;;18.70;99.90;;;;;;8358808;28;20458;-70
2023/09/19 16:10:20;;;;;;;;;;;18.70;99.90;;;;;;8364839;28;19985;-71
2023/09/19 16:14:22;;;;;;;;;;;18.70;99.90;;;;;;8382211;28;19932;-70
2023/09/19 16:18:24;;;;;;;;;;;18.70;99.90;;;;;;8376488;28;20016;-69
2023/09/19 16:22:26;;;;;;;;;;;18.70;99.90;;;;;;8379377;28;19929;-70
2023/09/19 16:26:29;;;;;;;;;;;18.70;99.90;;;;;;8377832;28;19925;-70
2023/09/19 16:30:33;;;;;;;;;;;18.70;99.90;;;;;;8373687;28;20699;-70
2023/09/19 16:34:35;;;;;;;;;;;18.70;99.90;;;;;;8383069;28;19924;-70
2023/09/19 16:38:37;;;;;;;;;;;18.70;99.90;;;;;;8379063;28;19939;-69
2023/09/19 16:42:41;;;;;;;;;;;18.80;99.90;;;;;;8378877;28;19932;-70
2023/09/19 16:46:43;;;;;;;;;;;18.80;99.90;;;;;;8369810;28;20008;-70
2023/09/19 16:50:45;;;;;;;;;;;18.80;99.90;;;;;;8384878;28;19978;-70
2023/09/19 16:54:47;;;;;;;;;;;18.60;99.90;;;;;;8387799;28;19932;-70
2023/09/19 16:58:50;;;;;;;;;;;18.60;99.90;;;;;;8378877;28;19933;-70
2023/09/19 17:02:53;;;;;;;;;;;18.60;99.90;;;;;;8382699;28;19931;-70
2023/09/19 17:06:57;;;;;;;;;;;18.60;99.90;;;;;;8383230;28;19924;-70
2023/09/19 17:10:59;;;;;;;;;;;18.60;99.90;;;;;;8377167;28;20652;-70
2023/09/19 17:15:01;;;;;;;;;;;18.60;99.90;;;;;;8374797;28;19929;-70
2023/09/19 17:19:08;;;;;;;;;;;18.60;99.90;;;;;;8347385;28;20348;-70
2023/09/19 17:23:10;;;;;;;;;;;18.70;99.90;;;;;;8369753;28;19924;-70
2023/09/19 17:27:11;;;;;;;;;;;18.60;99.90;;;;;;8371437;28;19928;-70
2023/09/19 17:31:18;;;;;;;;;;;18.60;99.90;;;;;;8378188;28;19925;-69
2023/09/19 17:35:20;;;;;;;;;;;18.60;99.90;;;;;;8362254;28;19951;-70
2023/09/19 17:39:22;;;;;;;;;;;18.50;99.90;;;;;;8380456;28;19928;-70
2023/09/19 17:43:23;;;;;;;;;;;18.50;99.90;;;;;;8374292;28;20011;-70
2023/09/19 17:47:25;;;;;;;;;;;18.40;99.90;;;;;;8375959;28;19925;-70
2023/09/19 17:51:27;;;;;;;;;;;18.30;99.90;;;;;;8371797;28;20379;-70
2023/09/19 17:55:29;;;;;;;;;;;18.20;99.90;;;;;;8371276;28;20315;-70
2023/09/19 17:59:31;;;;;;;;;;;18.10;99.90;;;;;;8364919;28;19925;-70
2023/09/19 18:03:32;;;;;;;;;;;18.00;99.90;;;;;;8368182;28;19935;-69
2023/09/19 18:07:34;;;;;;;;;;;17.90;99.90;;;;;;8376662;28;19939;-69
2023/09/19 18:11:35;;;;;;;;;;;17.90;99.90;;;;;;8370203;28;19929;-69
2023/09/19 18:15:37;;;;;;;;;;;17.90;99.90;;;;;;8375189;28;19936;-69
2023/09/19 18:19:39;;;;;;;;;;;17.80;99.90;;;;;;8344298;28;19928;-69
2023/09/19 18:23:41;;;;;;;;;;;17.80;99.90;;;;;;8372477;28;19933;-69
2023/09/19 18:27:43;;;;;;;;;;;17.70;99.90;;;;;;8381444;28;19928;-69
2023/09/19 18:31:45;;;;;;;;;;;17.60;99.90;;;;;;8363636;28;19932;-69
2023/09/19 18:35:47;;;;;;;;;;;17.50;99.90;;;;;;8380652;28;19982;-69
2023/09/19 18:39:51;;;;;;;;;;;17.40;99.90;;;;;;8383487;28;19948;-70
2023/09/19 18:43:52;;;;;;;;;;;17.40;99.90;;;;;;8385885;28;20311;-69
2023/09/19 18:47:54;;;;;;;;;;;17.40;99.90;;;;;;8381183;28;19928;-69
2023/09/19 18:51:56;;;;;;;;;;;17.40;99.90;;;;;;8376680;28;19932;-69
2023/09/19 18:56:13;;;;;;;;;;;17.30;99.90;;;;;;8384563;28;19929;-68
2023/09/19 19:00:16;;;;;;;;;;;17.30;99.90;;;;;;8376781;28;19929;-69
2023/09/19 19:04:18;;;;;;;;;;;17.30;99.90;;;;;;8378091;28;19932;-70
2023/09/19 19:08:20;;;;;;;;;;;17.30;99.90;;;;;;8368868;28;19924;-69
2023/09/19 19:12:22;;;;;;;;;;;17.30;99.90;;;;;;8380611;28;19925;-70
2023/09/19 19:16:26;;;;;;;;;;;17.30;99.90;;;;;;8392895;28;19939;-70
2023/09/19 19:20:28;;;;;;;;;;;17.30;99.90;;;;;;8385984;28;19974;-69
2023/09/19 19:24:30;;;;;;;;;;;17.30;99.90;;;;;;8390325;28;19928;-69
2023/09/19 19:28:32;;;;;;;;;;;17.30;99.90;;;;;;8380789;28;19932;-70
2023/09/19 19:32:33;;;;;;;;;;;17.30;99.90;;;;;;8374901;28;19929;-69
2023/09/19 19:36:35;;;;;;;;;;;17.30;99.90;;;;;;8373031;28;19952;-69
2023/09/19 19:40:37;;;;;;;;;;;17.30;99.90;;;;;;8382975;28;19983;-69
2023/09/19 19:44:38;;;;;;;;;;;17.30;99.90;;;;;;8367866;28;19924;-69
2023/09/19 19:48:41;;;;;;;;;;;17.30;99.90;;;;;;8380354;28;19928;-70
2023/09/19 19:52:43;;;;;;;;;;;17.30;99.90;;;;;;8360175;28;20414;-69
2023/09/19 19:56:46;;;;;;;;;;;17.30;99.90;;;;;;8379047;28;20260;-69
2023/09/19 20:00:49;;;;;;;;;;;17.30;99.90;;;;;;8385930;28;19986;-69
2023/09/19 20:04:51;;;;;;;;;;;17.30;99.90;;;;;;8382310;28;19991;-69
2023/09/19 20:08:53;;;;;;;;;;;17.30;99.90;;;;;;8374099;28;19929;-70
2023/09/19 20:12:56;;;;;;;;;;;17.40;99.90;;;;;;8380023;28;20304;-69
2023/09/19 20:16:59;;;;;;;;;;;17.40;99.90;;;;;;8374271;28;19924;-70
2023/09/19 20:21:10;;;;;;;;;;;17.40;99.90;;;;;;8376653;28;19989;-70
2023/09/19 20:25:12;;;;;;;;;;;17.40;99.90;;;;;;8379586;28;20007;-69
2023/09/19 20:34:27;;;;;;;;;;;17.50;99.90;;;;;;8370963;28;19927;-70
2023/09/19 20:58:43;;;;;;;;;;;17.60;99.90;;;;;;8374324;28;20267;-69
2023/09/19 21:02:47;;;;;;;;;;;17.60;99.90;;;;;;8381367;28;19928;-69
2023/09/19 21:06:49;;;;;;;;;;;17.60;99.90;;;;;;8371112;28;20299;-70
2023/09/19 21:10:50;;;;;;;;;;;17.60;99.90;;;;;;8378710;28;19925;-69
2023/09/19 21:14:53;;;;;;;;;;;17.60;99.90;;;;;;8370223;28;20028;-69
2023/09/19 21:18:55;;;;;;;;;;;17.60;99.90;;;;;;8373109;28;19925;-70
2023/09/19 21:22:56;;;;;;;;;;;17.60;99.90;;;;;;8376991;28;20001;-70
2023/09/19 21:27:04;;;;;;;;;;;17.60;99.90;;;;;;8373000;28;19924;-70
2023/09/19 21:31:08;;;;;;;;;;;17.60;99.90;;;;;;8378313;28;20371;-70
2023/09/19 21:35:11;;;;;;;;;;;17.60;99.90;;;;;;8374248;28;19924;-71
2023/09/19 21:39:13;;;;;;;;;;;17.60;99.90;;;;;;8373879;28;20330;-68
2023/09/19 21:43:14;;;;;;;;;;;17.60;99.90;;;;;;8377178;28;19924;-69
2023/09/19 21:47:16;;;;;;;;;;;17.60;99.90;;;;;;8379786;28;19928;-68
2023/09/19 21:51:18;;;;;;;;;;;17.60;99.90;;;;;;8368398;28;19929;-69
2023/09/19 21:55:19;;;;;;;;;;;17.60;99.90;;;;;;8369033;28;19947;-70
2023/09/19 21:59:22;;;;;;;;;;;17.60;99.90;;;;;;8374058;28;19974;-69
2023/09/19 22:03:24;;;;;;;;;;;17.60;99.90;;;;;;8373403;28;19944;-70
2023/09/19 22:07:26;;;;;;;;;;;17.60;99.90;;;;;;8370958;28;20284;-69
2023/09/19 22:11:28;;;;;;;;;;;17.60;99.90;;;;;;8374687;28;19971;-69
2023/09/19 22:15:32;;;;;;;;;;;17.60;99.90;;;;;;8366242;28;19931;-69
2023/09/19 22:19:38;;;;;;;;;;;17.60;99.90;;;;;;8377228;28;20303;-69
2023/09/19 22:23:44;;;;;;;;;;;17.70;99.90;;;;;;8373578;28;19931;-69
2023/09/19 22:27:46;;;;;;;;;;;17.70;99.90;;;;;;8378272;28;19928;-69
2023/09/19 22:31:50;;;;;;;;;;;17.70;99.90;;;;;;8378246;28;19932;-69
2023/09/19 22:35:52;;;;;;;;;;;17.80;99.90;;;;;;8376945;28;19979;-70
2023/09/19 22:39:57;;;;;;;;;;;17.80;99.90;;;;;;8377898;28;19933;-69
2023/09/19 22:43:59;;;;;;;;;;;17.90;99.90;;;;;;8374220;28;20587;-69
2023/09/19 22:48:04;;;;;;;;;;;17.90;99.90;;;;;;8354841;28;19975;-70
2023/09/19 22:52:08;;;;;;;;;;;17.90;99.90;;;;;;8352425;28;19978;-69
2023/09/19 22:56:11;;;;;;;;;;;18.00;99.90;;;;;;8376825;28;19924;-69
2023/09/19 23:00:15;;;;;;;;;;;18.00;99.90;;;;;;8377049;28;19931;-70
2023/09/19 23:04:17;;;;;;;;;;;18.00;99.90;;;;;;8373136;28;20288;-70
2023/09/19 23:08:19;;;;;;;;;;;18.00;99.90;;;;;;8371431;28;20411;-69
2023/09/19 23:12:23;;;;;;;;;;;18.00;99.90;;;;;;8352155;28;20023;-69
2023/09/19 23:16:29;;;;;;;;;;;18.00;99.90;;;;;;8370371;28;19994;-70
2023/09/19 23:20:38;;;;;;;;;;;18.00;99.90;;;;;;8361394;28;19929;-70
2023/09/19 23:24:41;;;;;;;;;;;18.00;99.90;;;;;;8377534;28;19928;-70
2023/09/19 23:28:43;;;;;;;;;;;18.00;99.90;;;;;;8378353;28;19968;-70
2023/09/19 23:32:45;;;;;;;;;;;18.10;99.90;;;;;;8380381;28;19932;-69
2023/09/19 23:36:46;;;;;;;;;;;18.10;99.90;;;;;;8376621;28;20333;-70
2023/09/19 23:40:50;;;;;;;;;;;18.10;99.90;;;;;;8381056;28;19924;-69
2023/09/19 23:44:54;;;;;;;;;;;18.10;99.90;;;;;;8378295;28;20671;-70
2023/09/19 23:48:57;;;;;;;;;;;18.10;99.90;;;;;;8381590;28;19940;-69
2023/09/19 23:53:00;;;;;;;;;;;18.10;99.90;;;;;;8378168;28;19931;-70
2023/09/19 23:57:06;;;;;;;;;;;18.10;99.90;;;;;;8374045;28;19960;-70
